createdAt,value
2019-04-26T00:01:35.922Z,0.93
2019-04-26T00:04:05.360Z,1.02
2019-04-26T00:06:34.241Z,1.05
2019-04-26T00:09:23.161Z,1.05
2019-04-26T00:12:06.609Z,1.00
2019-04-26T00:14:57.711Z,0.98
2019-04-26T00:17:30.225Z,0.97
2019-04-26T00:19:59.283Z,0.90
2019-04-26T00:22:27.990Z,1.30
2019-04-26T00:24:56.825Z,1.07
2019-04-26T00:27:25.829Z,1.32
2019-04-26T00:29:54.983Z,1.30
2019-04-26T00:32:23.826Z,0.98
2019-04-26T00:34:52.508Z,1.27
2019-04-26T00:37:21.198Z,1.12
2019-04-26T00:39:49.868Z,1.20
2019-04-26T00:42:19.188Z,1.30
2019-04-26T00:44:47.937Z,1.17
2019-04-26T00:47:17.223Z,1.30
2019-04-26T00:49:46.391Z,1.37
2019-04-26T00:52:17.388Z,1.00
2019-04-26T00:54:47.218Z,1.53
2019-04-26T00:57:18.325Z,1.00
2019-04-26T00:59:48.877Z,1.62
2019-04-26T01:02:23.766Z,1.37
2019-04-26T01:04:52.428Z,1.25
2019-04-26T01:07:21.259Z,1.60
2019-04-26T01:09:49.957Z,1.12
2019-04-26T01:12:19.701Z,1.40
2019-04-26T01:14:48.774Z,1.47
2019-04-26T01:17:18.645Z,1.27
2019-04-26T01:19:48.703Z,1.37
2019-04-26T01:22:23.395Z,1.30
2019-04-26T01:24:55.221Z,1.40
2019-04-26T01:29:57.514Z,1.50
2019-04-26T01:32:28.342Z,1.45
2019-04-26T01:34:57.936Z,1.62
2019-04-26T01:37:27.418Z,1.70
2019-04-26T01:40:01.205Z,1.55
2019-04-26T01:42:51.435Z,1.60
2019-04-26T01:45:32.383Z,1.57
2019-04-26T01:48:07.490Z,1.32
2019-04-26T01:50:37.010Z,1.60
2019-04-26T01:53:06.546Z,1.80
2019-04-26T01:55:35.297Z,1.62
2019-04-26T01:58:06.690Z,1.65
2019-04-26T02:00:49.648Z,1.90
2019-04-26T02:03:25.592Z,1.80
2019-04-26T02:05:54.783Z,1.72
2019-04-26T02:08:24.546Z,1.80
2019-04-26T02:10:53.336Z,2.12
2019-04-26T02:13:24.833Z,1.70
2019-04-26T02:15:53.461Z,1.80
2019-04-26T02:18:23.941Z,2.10
2019-04-26T02:21:21.884Z,2.08
2019-04-26T02:24:24.822Z,2.08
2019-04-26T02:26:54.788Z,2.08
2019-04-26T02:29:27.100Z,1.90
2019-04-26T02:31:59.643Z,2.12
2019-04-26T02:34:31.749Z,2.30
2019-04-26T02:37:04.162Z,2.30
2019-04-26T02:42:08.185Z,2.00
2019-04-26T02:44:46.608Z,2.30
2019-04-26T02:47:41.377Z,2.20
2019-04-26T02:50:17.083Z,2.37
2019-04-26T02:52:58.352Z,2.35
2019-04-26T02:56:05.701Z,2.45
2019-04-26T02:58:41.953Z,2.60
2019-04-26T03:01:11.519Z,2.40
2019-04-26T03:03:40.821Z,2.72
2019-04-26T03:06:10.136Z,2.42
2019-04-26T03:08:40.440Z,2.75
2019-04-26T03:11:17.241Z,3.20
2019-04-26T03:14:05.709Z,2.75
2019-04-26T03:16:46.006Z,3.17
2019-04-26T03:19:28.400Z,3.70
2019-04-26T03:22:27.024Z,3.45
2019-04-26T03:25:06.951Z,3.40
2019-04-26T03:27:47.007Z,3.40
2019-04-26T03:30:26.900Z,3.58
2019-04-26T03:33:36.203Z,3.83
2019-04-26T03:36:45.684Z,3.30
2019-04-26T03:39:32.931Z,3.20
2019-04-26T03:42:23.646Z,3.58
2019-04-26T03:45:00.584Z,3.70
2019-04-26T03:47:34.217Z,3.85
2019-04-26T03:50:17.169Z,4.20
2019-04-26T03:53:19.103Z,4.47
2019-04-26T03:56:42.375Z,3.90
2019-04-26T03:59:30.975Z,4.35
2019-04-26T04:02:19.040Z,4.25
2019-04-26T04:04:59.333Z,5.12
2019-04-26T04:07:39.042Z,6.12
2019-04-26T04:10:10.830Z,7.92
2019-04-26T04:12:47.758Z,10.50
2019-04-26T04:15:23.289Z,9.78
2019-04-26T04:18:02.058Z,11.43
2019-04-26T04:21:12.676Z,11.95
2019-04-26T04:24:09.117Z,12.18
2019-04-26T04:27:27.896Z,11.70
2019-04-26T04:30:08.115Z,13.00
2019-04-26T04:33:16.030Z,14.45
2019-04-26T04:35:50.799Z,20.72
2019-04-26T04:38:35.852Z,19.95
2019-04-26T04:41:22.270Z,22.10
2019-04-26T04:44:02.956Z,21.60
2019-04-26T04:47:22.282Z,21.73
2019-04-26T04:50:14.945Z,23.32
2019-04-26T04:52:53.570Z,24.25
2019-04-26T04:55:33.003Z,23.45
2019-04-26T04:58:08.504Z,24.23
2019-04-26T05:01:42.863Z,24.20
2019-04-26T05:04:21.069Z,24.20
2019-04-26T05:07:24.826Z,25.40
2019-04-26T05:10:17.421Z,25.08
2019-04-26T05:12:58.865Z,25.55
2019-04-26T05:16:17.523Z,27.70
2019-04-26T05:19:30.388Z,25.82
2019-04-26T05:22:11.808Z,28.55
2019-04-26T05:25:03.694Z,29.32
2019-04-26T05:27:57.246Z,28.73
2019-04-26T05:31:12.193Z,28.75
2019-04-26T05:34:10.452Z,29.37
2019-04-26T05:37:00.151Z,29.40
2019-04-26T05:39:49.206Z,30.17
2019-04-26T05:42:33.836Z,29.15
2019-04-26T05:45:35.545Z,29.57
2019-04-26T05:48:31.171Z,26.97
2019-04-26T05:51:33.684Z,27.17
2019-04-26T05:57:42.038Z,26.85
2019-04-26T06:00:30.294Z,27.75
2019-04-26T06:04:04.203Z,27.25
2019-04-26T06:06:41.317Z,27.10
2019-04-26T06:10:03.510Z,26.30
2019-04-26T06:12:43.471Z,26.93
2019-04-26T06:15:43.540Z,26.55
2019-04-26T06:18:36.079Z,25.45
2019-04-26T06:21:16.886Z,27.22
2019-04-26T06:24:06.093Z,28.42
2019-04-26T06:27:11.895Z,29.10
2019-04-26T06:29:43.399Z,29.07
2019-04-26T06:32:20.025Z,32.28
2019-04-26T06:35:01.454Z,31.17
2019-04-26T06:37:55.348Z,33.50
2019-04-26T06:40:48.560Z,33.98
2019-04-26T06:43:26.727Z,33.90
2019-04-26T06:46:39.136Z,35.20
2019-04-26T06:49:18.770Z,33.50
2019-04-26T06:51:52.610Z,35.15
2019-04-26T06:54:32.165Z,35.20
2019-04-26T06:57:33.214Z,36.30
2019-04-26T07:00:17.090Z,35.15
2019-04-26T07:02:58.946Z,34.73
2019-04-26T07:05:30.515Z,32.30
2019-04-26T07:08:57.316Z,30.60
2019-04-26T07:12:03.850Z,29.25
2019-04-26T07:15:29.940Z,28.12
2019-04-26T07:18:11.129Z,26.97
2019-04-26T07:20:53.939Z,24.13
2019-04-26T07:23:59.970Z,24.43
2019-04-26T07:26:57.378Z,25.52
2019-04-26T07:30:12.652Z,24.40
2019-04-26T07:33:15.283Z,23.32
2019-04-26T07:36:15.175Z,25.27
2019-04-26T07:42:58.476Z,25.50
2019-04-26T07:46:01.355Z,25.27
2019-04-26T07:49:01.701Z,24.57
2019-04-26T07:52:12.613Z,25.95
2019-04-26T07:55:23.649Z,22.90
2019-04-26T07:58:41.365Z,22.42
2019-04-26T08:01:28.299Z,21.87
2019-04-26T08:04:05.310Z,22.95
2019-04-26T08:07:15.758Z,20.20
2019-04-26T08:09:59.994Z,19.23
2019-04-26T08:12:25.247Z,19.12
2019-04-26T08:15:17.753Z,17.92
2019-04-26T08:18:01.153Z,18.32
2019-04-26T08:20:51.843Z,18.12
2019-04-26T08:23:39.476Z,16.80
2019-04-26T08:26:05.123Z,18.05
2019-04-26T08:28:38.589Z,17.75
2019-04-26T08:31:10.909Z,17.82
2019-04-26T08:33:48.704Z,17.02
2019-04-26T08:36:23.284Z,16.87
2019-04-26T08:38:52.614Z,16.10
2019-04-26T08:41:24.819Z,14.80
2019-04-26T08:44:14.456Z,15.18
2019-04-26T08:47:02.264Z,14.25
2019-04-26T08:49:56.836Z,14.93
2019-04-26T08:52:30.400Z,15.05
2019-04-26T08:55:01.044Z,14.95
2019-04-26T08:57:33.063Z,15.10
2019-04-26T09:00:03.926Z,14.58
2019-04-26T09:02:52.959Z,15.03
2019-04-26T09:05:45.648Z,14.38
2019-04-26T09:08:16.948Z,14.38
2019-04-26T09:10:49.087Z,13.45
2019-04-26T09:13:20.232Z,12.37
2019-04-26T09:16:05.296Z,13.03
2019-04-26T09:18:43.237Z,11.55
2019-04-26T09:21:05.586Z,11.00
2019-04-26T09:23:53.369Z,9.65
2019-04-26T09:26:33.638Z,9.13
2019-04-26T09:29:20.521Z,9.30
2019-04-26T09:31:54.482Z,8.78
2019-04-26T09:34:21.999Z,9.23
2019-04-26T09:36:50.817Z,8.90
2019-04-26T09:39:21.182Z,7.42
2019-04-26T09:41:50.149Z,8.33
2019-04-26T09:44:32.970Z,7.28
2019-04-26T09:47:19.176Z,8.53
2019-04-26T09:50:03.838Z,7.20
2019-04-26T09:52:38.962Z,7.62
2019-04-26T09:55:08.399Z,8.08
2019-04-26T09:57:37.368Z,7.25
2019-04-26T10:00:10.299Z,5.95
2019-04-26T10:02:40.880Z,6.33
2019-04-26T10:05:12.049Z,6.75
2019-04-26T10:07:41.317Z,5.85
2019-04-26T10:10:22.262Z,6.50
2019-04-26T10:13:08.391Z,6.55
2019-04-26T10:16:02.925Z,6.80
2019-04-26T10:18:33.811Z,6.72
2019-04-26T10:21:05.157Z,7.25
2019-04-26T10:23:33.949Z,7.12
2019-04-26T10:26:02.814Z,6.58
2019-04-26T10:28:31.840Z,7.15
2019-04-26T10:31:00.737Z,6.83
2019-04-26T10:33:32.624Z,7.40
2019-04-26T10:36:00.161Z,7.53
2019-04-26T10:38:28.879Z,7.05
2019-04-26T10:40:57.620Z,7.25
2019-04-26T10:43:29.254Z,5.87
2019-04-26T10:45:57.010Z,6.55
2019-04-26T10:48:25.769Z,6.60
2019-04-26T10:50:54.571Z,7.33
2019-04-26T10:53:37.233Z,7.28
2019-04-26T10:56:28.552Z,7.95
2019-04-26T10:59:31.637Z,7.90
2019-04-26T11:01:59.694Z,7.92
2019-04-26T11:04:28.388Z,7.65
2019-04-26T11:06:58.095Z,7.75
2019-04-26T11:09:27.925Z,8.10
2019-04-26T11:11:56.978Z,7.55
2019-04-26T11:14:26.008Z,8.08
2019-04-26T11:16:55.186Z,8.35
2019-04-26T11:19:24.589Z,8.93
2019-04-26T11:21:54.850Z,9.58
2019-04-26T11:24:24.201Z,10.25
2019-04-26T11:26:52.894Z,9.88
2019-04-26T11:29:24.980Z,10.03
2019-04-26T11:31:54.149Z,10.18
2019-04-26T11:34:23.649Z,9.50
2019-04-26T11:36:53.213Z,10.80
2019-04-26T11:39:22.585Z,9.65
2019-04-26T11:41:51.647Z,9.10
2019-04-26T11:44:23.343Z,9.83
2019-04-26T11:46:51.330Z,8.03
2019-04-26T11:49:20.033Z,6.97
2019-04-26T11:51:48.769Z,7.47
2019-04-26T11:54:20.844Z,8.93
2019-04-26T11:56:50.309Z,7.42
2019-04-26T11:59:19.331Z,7.53
2019-04-26T12:01:48.046Z,6.70
2019-04-26T12:04:36.090Z,8.03
2019-04-26T12:07:11.063Z,7.40
2019-04-26T12:09:42.532Z,6.85
2019-04-26T12:12:13.063Z,7.42
2019-04-26T12:14:42.251Z,7.95
2019-04-26T12:17:10.956Z,8.08
2019-04-26T12:19:39.971Z,8.55
2019-04-26T12:22:09.982Z,9.10
2019-04-26T12:24:38.723Z,9.00
2019-04-26T12:27:10.245Z,9.83
2019-04-26T12:29:38.238Z,10.65
2019-04-26T12:32:10.078Z,11.10
2019-04-26T12:34:39.809Z,11.30
2019-04-26T12:37:08.594Z,11.83
2019-04-26T12:39:38.290Z,12.45
2019-04-26T12:42:08.267Z,11.40
2019-04-26T12:45:00.471Z,12.80
2019-04-26T12:47:38.626Z,13.60
2019-04-26T12:50:05.996Z,14.18
2019-04-26T12:52:37.365Z,14.40
2019-04-26T12:55:06.076Z,14.38
2019-04-26T12:57:36.481Z,15.25
2019-04-26T13:00:06.212Z,16.00
2019-04-26T13:02:34.918Z,16.00
2019-04-26T13:05:03.690Z,15.10
2019-04-26T13:07:32.386Z,15.70
2019-04-26T13:10:18.986Z,15.95
2019-04-26T13:12:55.158Z,18.32
2019-04-26T13:16:14.199Z,18.57
2019-04-26T13:18:45.315Z,17.77
2019-04-26T13:21:13.625Z,17.95
2019-04-26T13:23:42.322Z,18.65
2019-04-26T13:26:11.400Z,18.27
2019-04-26T13:28:40.519Z,19.52
2019-04-26T13:31:09.330Z,18.85
2019-04-26T13:33:38.379Z,20.00
2019-04-26T13:36:07.082Z,19.77
2019-04-26T13:38:39.303Z,22.82
2019-04-26T13:41:06.947Z,22.75
2019-04-26T13:43:35.622Z,19.65
2019-04-26T13:46:26.310Z,19.85
2019-04-26T13:49:07.379Z,21.48
2019-04-26T13:51:36.071Z,22.93
2019-04-26T13:54:05.260Z,40.23
2019-04-26T13:56:35.998Z,32.05
2019-04-26T13:59:04.793Z,28.92
2019-04-26T14:01:33.754Z,26.70
2019-04-26T14:04:07.027Z,25.68
2019-04-26T14:06:33.535Z,24.45
2019-04-26T14:09:02.984Z,22.27
2019-04-26T14:11:32.181Z,26.70
2019-04-26T14:14:01.869Z,25.72
2019-04-26T14:16:30.806Z,26.10
2019-04-26T14:18:59.575Z,27.13
2019-04-26T14:21:32.682Z,31.00
2019-04-26T14:24:19.679Z,33.20
2019-04-26T14:26:51.128Z,36.40
2019-04-26T14:29:20.326Z,39.83
2019-04-26T14:31:51.402Z,38.73
2019-04-26T14:34:19.450Z,40.08
2019-04-26T14:36:48.250Z,41.63
2019-04-26T14:39:19.587Z,43.55
2019-04-26T14:41:47.869Z,43.95
2019-04-26T14:44:16.562Z,44.98
2019-04-26T14:46:48.942Z,45.50
2019-04-26T14:49:19.132Z,45.17
2019-04-26T14:51:51.211Z,45.12
2019-04-26T14:54:18.259Z,47.48
2019-04-26T14:56:52.400Z,46.02
2019-04-26T14:59:39.452Z,44.70
2019-04-26T15:02:30.477Z,45.98
2019-04-26T15:05:18.187Z,47.60
2019-04-26T15:07:50.765Z,47.05
2019-04-26T15:10:19.115Z,48.30
2019-04-26T15:12:52.700Z,48.02
2019-04-26T15:15:18.583Z,48.15
2019-04-26T15:17:47.353Z,48.55
2019-04-26T15:20:16.792Z,49.33
2019-04-26T15:22:48.812Z,47.35
2019-04-26T15:25:17.623Z,50.08
2019-04-26T15:27:46.557Z,48.08
2019-04-26T15:30:15.336Z,48.95
2019-04-26T15:32:47.132Z,48.25
2019-04-26T15:35:18.258Z,48.50
2019-04-26T15:37:47.278Z,49.13
2019-04-26T15:40:34.982Z,49.15
2019-04-26T15:43:23.799Z,49.53
2019-04-26T15:46:13.590Z,51.30
2019-04-26T15:49:04.683Z,47.30
2019-04-26T15:51:32.601Z,47.78
2019-04-26T15:54:01.562Z,48.83
2019-04-26T15:56:32.478Z,48.25
2019-04-26T15:59:02.578Z,49.67
2019-04-26T16:01:32.565Z,49.10
2019-04-26T16:04:05.796Z,49.18
2019-04-26T16:06:33.081Z,48.10
2019-04-26T16:09:02.397Z,45.80
2019-04-26T16:11:31.602Z,46.55
2019-04-26T16:14:02.108Z,46.88
2019-04-26T16:16:34.160Z,46.85
2019-04-26T16:19:02.962Z,44.38
2019-04-26T16:21:32.351Z,55.05
2019-04-26T16:24:02.766Z,48.13
2019-04-26T16:26:32.917Z,54.55
2019-04-26T16:29:19.764Z,79.70
2019-04-26T16:32:00.508Z,43.90
2019-04-26T16:34:29.493Z,46.95
2019-04-26T16:36:58.447Z,47.50
2019-04-26T16:39:32.331Z,47.13
2019-04-26T16:41:59.390Z,46.70
2019-04-26T16:44:31.319Z,47.43
2019-04-26T16:47:03.635Z,44.27
2019-04-26T16:49:35.100Z,47.35
2019-04-26T16:52:06.601Z,46.80
2019-04-26T16:54:34.260Z,45.92
2019-04-26T16:57:06.285Z,46.33
2019-04-26T16:59:32.923Z,45.33
2019-04-26T17:02:02.735Z,45.15
2019-04-26T17:04:35.089Z,45.40
2019-04-26T17:07:04.873Z,45.20
2019-04-26T17:09:54.396Z,43.10
2019-04-26T17:12:03.251Z,45.45
2019-04-26T17:14:34.155Z,46.08
2019-04-26T17:17:07.444Z,41.65
2019-04-26T17:19:37.491Z,43.38
2019-04-26T17:22:44.474Z,57.55
2019-04-26T17:25:17.037Z,43.80
2019-04-26T17:27:47.193Z,60.55
2019-04-26T17:30:20.514Z,75.17
2019-04-26T17:32:51.547Z,55.38
2019-04-26T17:35:19.623Z,64.25
2019-04-26T17:37:48.318Z,48.02
2019-04-26T17:40:17.004Z,53.80
2019-04-26T17:42:45.680Z,73.17
2019-04-26T17:45:14.875Z,47.05
2019-04-26T17:47:43.565Z,61.02
2019-04-26T17:50:12.763Z,46.20
2019-04-26T17:52:44.250Z,51.42
2019-04-26T17:55:14.828Z,56.25
2019-04-26T17:57:48.410Z,56.65
2019-04-26T18:00:20.799Z,55.25
2019-04-26T18:02:50.925Z,60.50
2019-04-26T18:05:24.495Z,43.75
2019-04-26T18:07:58.222Z,45.00
2019-04-26T18:10:20.862Z,44.13
2019-04-26T18:12:50.794Z,45.23
2019-04-26T18:15:19.846Z,43.35
2019-04-26T18:18:14.452Z,40.70
2019-04-26T18:23:30.347Z,41.53
2019-04-26T18:25:58.560Z,42.62
2019-04-26T18:28:27.499Z,44.67
2019-04-26T18:30:56.550Z,43.42
2019-04-26T18:33:26.103Z,44.60
2019-04-26T18:35:57.437Z,45.38
2019-04-26T18:38:25.382Z,44.83
2019-04-26T18:41:00.929Z,43.48
2019-04-26T18:43:25.142Z,43.05
2019-04-26T18:45:58.567Z,42.93
2019-04-26T18:48:26.397Z,41.55
2019-04-26T18:50:55.455Z,40.85
2019-04-26T18:53:40.568Z,40.95
2019-04-26T18:56:09.821Z,44.13
2019-04-26T18:58:38.598Z,45.03
2019-04-26T19:01:09.271Z,43.68
2019-04-26T19:03:40.823Z,46.05
2019-04-26T19:06:09.605Z,44.95
2019-04-26T19:08:47.674Z,45.95
2019-04-26T19:11:11.723Z,42.13
2019-04-26T19:13:56.372Z,43.92
2019-04-26T19:16:46.420Z,42.75
2019-04-26T19:19:31.605Z,44.98
2019-04-26T19:22:03.327Z,45.17
2019-04-26T19:26:59.923Z,42.67
2019-04-26T19:29:33.579Z,40.55
2019-04-26T19:32:01.565Z,42.05
2019-04-26T19:34:30.303Z,40.45
2019-04-26T19:37:01.616Z,41.08
2019-04-26T19:39:35.061Z,39.10
2019-04-26T19:42:02.483Z,39.48
2019-04-26T19:44:31.672Z,39.25
2019-04-26T19:47:25.996Z,40.35
2019-04-26T19:50:09.605Z,38.53
2019-04-26T19:52:53.736Z,38.23
2019-04-26T19:55:51.420Z,37.95
2019-04-26T19:58:22.807Z,38.13
2019-04-26T20:00:52.417Z,38.38
2019-04-26T20:03:21.553Z,36.60
2019-04-26T20:05:50.342Z,36.98
2019-04-26T20:08:19.446Z,37.70
2019-04-26T20:10:48.450Z,37.13
2019-04-26T20:13:17.389Z,39.75
2019-04-26T20:15:46.677Z,39.70
2019-04-26T20:18:17.457Z,39.60
2019-04-26T20:20:46.096Z,40.25
2019-04-26T20:23:14.848Z,38.70
2019-04-26T20:25:44.037Z,40.98
2019-04-26T20:28:14.069Z,40.75
2019-04-26T20:31:05.926Z,43.13
2019-04-26T20:33:34.928Z,43.13
2019-04-26T20:36:04.776Z,40.08
2019-04-26T20:38:42.139Z,41.28
2019-04-26T20:41:03.898Z,42.50
2019-04-26T20:43:36.802Z,39.95
2019-04-26T20:46:14.049Z,41.48
2019-04-26T20:48:34.167Z,40.98
2019-04-26T20:51:06.601Z,39.92
2019-04-26T20:53:39.990Z,38.88
2019-04-26T20:56:09.907Z,39.55
2019-04-26T20:58:37.531Z,41.30
2019-04-26T21:01:10.975Z,41.08
2019-04-26T21:03:41.887Z,40.08
2019-04-26T21:06:07.935Z,39.15
2019-04-26T21:08:36.936Z,37.48
2019-04-26T21:11:06.022Z,38.63
2019-04-26T21:13:34.959Z,39.30
2019-04-26T21:16:10.612Z,37.78
2019-04-26T21:18:39.976Z,36.77
2019-04-26T21:21:05.933Z,37.48
2019-04-26T21:23:39.987Z,37.23
2019-04-26T21:26:16.669Z,40.73
2019-04-26T21:28:51.980Z,37.83
2019-04-26T21:31:40.923Z,37.88
2019-04-26T21:34:34.497Z,36.95
2019-04-26T21:37:22.030Z,37.42
2019-04-26T21:40:08.152Z,36.63
2019-04-26T21:42:36.841Z,36.95
2019-04-26T21:45:06.839Z,37.40
2019-04-26T21:47:37.239Z,37.83
2019-04-26T21:50:06.381Z,37.90
2019-04-26T21:52:35.362Z,38.25
2019-04-26T21:55:07.453Z,37.50
2019-04-26T21:57:36.897Z,38.67
2019-04-26T22:00:09.257Z,38.33
2019-04-26T22:02:38.103Z,39.85
2019-04-26T22:05:07.949Z,38.58
2019-04-26T22:07:39.535Z,38.70
2019-04-26T22:10:17.422Z,37.67
2019-04-26T22:12:46.121Z,37.28
2019-04-26T22:15:35.806Z,36.48
2019-04-26T22:18:10.307Z,35.40
2019-04-26T22:20:44.818Z,34.88
2019-04-26T22:23:51.699Z,36.40
2019-04-26T22:26:19.807Z,36.05
2019-04-26T22:28:53.382Z,33.88
2019-04-26T22:31:25.175Z,33.75
2019-04-26T22:33:56.008Z,34.88
2019-04-26T22:36:27.462Z,35.52
2019-04-26T22:39:01.354Z,37.28
2019-04-26T22:41:28.477Z,36.28
2019-04-26T22:44:24.839Z,37.30
2019-04-26T22:47:10.978Z,37.40
2019-04-26T22:49:41.726Z,39.13
2019-04-26T22:52:15.719Z,38.83
2019-04-26T22:54:44.699Z,36.65
2019-04-26T22:57:15.191Z,35.90
2019-04-26T22:59:49.572Z,38.60
2019-04-26T23:02:18.387Z,35.78
2019-04-26T23:04:45.223Z,32.55
2019-04-26T23:07:18.372Z,34.38
2019-04-26T23:09:51.897Z,35.52
2019-04-26T23:12:34.457Z,36.40
2019-04-26T23:15:24.021Z,35.43
2019-04-26T23:18:15.957Z,35.20
2019-04-26T23:20:57.237Z,35.28
2019-04-26T23:23:26.230Z,35.08
2019-04-26T23:25:54.914Z,37.58
2019-04-26T23:28:27.636Z,36.48
2019-04-26T23:30:54.363Z,38.78
2019-04-26T23:33:23.951Z,38.60
2019-04-26T23:35:53.238Z,36.88
2019-04-26T23:38:23.471Z,38.80
2019-04-26T23:40:52.240Z,38.60
2019-04-26T23:43:24.030Z,37.70
2019-04-26T23:45:52.766Z,37.65
2019-04-26T23:48:22.288Z,37.80
2019-04-26T23:50:50.955Z,38.10
2019-04-26T23:53:20.536Z,37.15
2019-04-26T23:55:50.057Z,38.42
2019-04-26T23:58:18.754Z,37.70
